createdAt,value
2023-03-08T00:00:21.114Z,99069.31
2023-03-08T00:01:24.042Z,99060.53
2023-03-08T00:02:25.962Z,99060.53
2023-03-08T00:03:27.983Z,99055.03
2023-03-08T00:04:29.830Z,99058.88
2023-03-08T00:05:31.638Z,99050.38
2023-03-08T00:06:33.554Z,99050.22
2023-03-08T00:07:35.405Z,99054.69
2023-03-08T00:08:37.313Z,99045.41
2023-03-08T00:09:39.135Z,99055.69
2023-03-08T00:10:40.914Z,99043.25
2023-03-08T00:11:42.749Z,99054.22
2023-03-08T00:12:44.582Z,99056.69
2023-03-08T00:13:46.489Z,99054.22
2023-03-08T00:14:49.067Z,99057.69
2023-03-08T00:15:51.109Z,99061.19
2023-03-08T00:16:52.911Z,99067.53
2023-03-08T00:17:54.792Z,99064.84
2023-03-08T00:18:56.580Z,99070.19
2023-03-08T00:19:58.477Z,99045.88
2023-03-08T00:21:14.448Z,99080.81
2023-03-08T00:22:16.244Z,99074.31
2023-03-08T00:23:18.098Z,99069.31
2023-03-08T00:24:19.923Z,99073.81
2023-03-08T00:25:21.740Z,99062.16
2023-03-08T00:26:23.730Z,99068.66
2023-03-08T00:27:25.541Z,99073.31
2023-03-08T00:28:27.508Z,99070.00
2023-03-08T00:29:29.321Z,99072.47
2023-03-08T00:30:32.279Z,99071.47
2023-03-08T00:31:34.421Z,99075.78
2023-03-08T00:32:36.265Z,99076.78
2023-03-08T00:33:38.604Z,99071.66
2023-03-08T00:34:46.300Z,99040.56
2023-03-08T00:35:58.230Z,99061.84
2023-03-08T00:37:00.026Z,99066.00
2023-03-08T00:38:01.827Z,99051.53
2023-03-08T00:39:03.860Z,99061.84
2023-03-08T00:40:06.445Z,99062.16
2023-03-08T00:41:10.113Z,99035.06
2023-03-08T00:42:12.444Z,99064.81
2023-03-08T00:43:14.242Z,99066.66
2023-03-08T00:44:16.023Z,99045.22
2023-03-08T00:45:18.453Z,99057.84
2023-03-08T00:46:20.381Z,99065.81
2023-03-08T00:47:22.195Z,99063.34
2023-03-08T00:48:24.493Z,99067.81
2023-03-08T00:49:27.162Z,99063.34
2023-03-08T00:50:28.928Z,99068.66
2023-03-08T00:51:30.763Z,99061.69
2023-03-08T00:52:32.572Z,99050.88
2023-03-08T00:53:34.974Z,99058.69
2023-03-08T00:54:37.015Z,99052.53
2023-03-08T00:55:39.291Z,99066.16
2023-03-08T00:56:41.382Z,99069.81
2023-03-08T00:57:43.189Z,99057.84
2023-03-08T00:58:45.626Z,99068.81
2023-03-08T00:59:47.421Z,99056.69
2023-03-08T01:00:49.508Z,99073.13
2023-03-08T01:01:51.349Z,99076.78
2023-03-08T01:02:53.578Z,99070.66
2023-03-08T01:03:55.505Z,99066.16
2023-03-08T01:04:58.473Z,99068.81
2023-03-08T01:06:08.199Z,99065.34
2023-03-08T01:07:11.868Z,99067.00
2023-03-08T01:08:15.149Z,99063.50
2023-03-08T01:09:16.914Z,99049.22
2023-03-08T01:10:20.317Z,99061.84
2023-03-08T01:11:25.113Z,99055.84
2023-03-08T01:12:27.029Z,99064.50
2023-03-08T01:13:32.109Z,99060.16
2023-03-08T01:14:34.479Z,99020.25
2023-03-08T01:15:37.984Z,99045.88
2023-03-08T01:16:42.041Z,99055.03
2023-03-08T01:17:43.877Z,99045.22
2023-03-08T01:18:45.753Z,99044.22
2023-03-08T01:19:47.524Z,99061.16
2023-03-08T01:21:01.135Z,99057.50
2023-03-08T01:22:04.108Z,99060.03
2023-03-08T01:23:05.968Z,99053.84
2023-03-08T01:24:08.020Z,99059.34
2023-03-08T01:25:10.155Z,99061.16
2023-03-08T01:26:17.660Z,99059.50
2023-03-08T01:27:19.469Z,99066.50
2023-03-08T01:28:21.270Z,99057.03
2023-03-08T01:29:23.061Z,99060.50
2023-03-08T01:30:25.452Z,99055.00
2023-03-08T01:31:29.667Z,99054.53
2023-03-08T01:32:32.610Z,99064.81
2023-03-08T01:33:35.005Z,99058.50
2023-03-08T01:34:38.503Z,99054.53
2023-03-08T01:35:40.294Z,99043.03
2023-03-08T01:36:42.616Z,99059.84
2023-03-08T01:37:44.507Z,99043.88
2023-03-08T01:38:47.541Z,99050.19
2023-03-08T01:39:49.335Z,99050.53
2023-03-08T01:40:57.635Z,99051.19
2023-03-08T01:41:59.729Z,99059.03
2023-03-08T01:43:21.632Z,99041.41
2023-03-08T01:44:24.092Z,99044.56
2023-03-08T01:46:04.841Z,99049.38
2023-03-08T01:47:18.147Z,99047.41
2023-03-08T01:49:09.829Z,99049.38
2023-03-08T01:50:13.465Z,99049.88
2023-03-08T01:51:24.230Z,99034.09
2023-03-08T01:52:35.771Z,99041.91
2023-03-08T01:53:39.457Z,99046.22
2023-03-08T01:54:51.529Z,99046.56
2023-03-08T01:55:53.740Z,99036.91
2023-03-08T01:57:01.708Z,99047.72
2023-03-08T01:58:04.248Z,99031.59
2023-03-08T01:59:06.822Z,99041.72
2023-03-08T02:00:16.171Z,99042.72
2023-03-08T02:01:20.486Z,99035.59
2023-03-08T02:02:28.505Z,99045.38
2023-03-08T02:03:31.482Z,99046.22
2023-03-08T02:04:35.003Z,99034.59
2023-03-08T02:05:40.297Z,99037.56
2023-03-08T02:06:49.493Z,99035.06
2023-03-08T02:07:55.936Z,99042.56
2023-03-08T02:09:04.992Z,99034.91
2023-03-08T02:10:07.749Z,99033.94
2023-03-08T02:11:11.285Z,99024.91
2023-03-08T02:12:14.005Z,99042.03
2023-03-08T02:13:16.802Z,99029.56
2023-03-08T02:14:19.717Z,99042.03
2023-03-08T02:15:24.786Z,99021.94
2023-03-08T02:16:30.572Z,99040.22
2023-03-08T02:17:37.714Z,99041.22
2023-03-08T02:18:59.694Z,99039.25
2023-03-08T02:20:19.248Z,99034.25
2023-03-08T02:21:21.568Z,99037.91
2023-03-08T02:22:23.710Z,99035.59
2023-03-08T02:23:26.080Z,99028.56
2023-03-08T02:24:28.011Z,99021.75
2023-03-08T02:25:29.955Z,99018.41
2023-03-08T02:26:32.464Z,99040.56
2023-03-08T02:27:34.319Z,99031.75
2023-03-08T02:28:36.641Z,99030.94
2023-03-08T02:29:38.807Z,99036.25
2023-03-08T02:30:40.777Z,99029.28
2023-03-08T02:31:42.842Z,99033.75
2023-03-08T02:32:44.718Z,99031.06
2023-03-08T02:33:46.618Z,99034.59
2023-03-08T02:34:48.432Z,99033.75
2023-03-08T02:35:51.305Z,99025.91
2023-03-08T02:36:53.231Z,99026.59
2023-03-08T02:37:55.036Z,99022.25
2023-03-08T02:38:56.886Z,99014.63
2023-03-08T02:39:58.902Z,99024.91
2023-03-08T02:41:00.736Z,99028.56
2023-03-08T02:42:02.625Z,99027.56
2023-03-08T02:43:05.528Z,99019.09
2023-03-08T02:44:07.385Z,99029.28
2023-03-08T02:45:11.051Z,99028.72
2023-03-08T02:46:14.394Z,99028.56
2023-03-08T02:47:16.291Z,99027.56
2023-03-08T02:48:19.208Z,99014.44
2023-03-08T02:49:21.980Z,99026.72
2023-03-08T02:50:23.783Z,99026.72
2023-03-08T02:51:25.602Z,99022.59
2023-03-08T02:52:27.372Z,99008.31
2023-03-08T02:53:29.432Z,99018.41
2023-03-08T02:54:31.954Z,99020.59
2023-03-08T02:55:37.341Z,99004.63
2023-03-08T02:56:43.924Z,99023.94
2023-03-08T02:57:47.977Z,99023.09
2023-03-08T02:58:51.264Z,99020.44
2023-03-08T02:59:53.118Z,99025.06
2023-03-08T03:00:55.018Z,99010.97
2023-03-08T03:01:57.973Z,99023.41
2023-03-08T03:03:00.140Z,99022.41
2023-03-08T03:04:02.978Z,99019.09
2023-03-08T03:05:11.151Z,99017.59
2023-03-08T03:06:17.794Z,99020.59
2023-03-08T03:07:22.080Z,99013.09
2023-03-08T03:08:24.914Z,99028.56
2023-03-08T03:09:29.997Z,99025.91
2023-03-08T03:10:32.037Z,99021.59
2023-03-08T03:11:33.861Z,99030.56
2023-03-08T03:12:36.655Z,99030.56
2023-03-08T03:13:40.543Z,99021.06
2023-03-08T03:14:43.439Z,99032.56
2023-03-08T03:15:45.431Z,99014.91
2023-03-08T03:16:47.544Z,99019.94
2023-03-08T03:17:49.393Z,99035.22
2023-03-08T03:18:53.776Z,99037.69
2023-03-08T03:19:55.564Z,99037.69
2023-03-08T03:21:03.644Z,99036.88
2023-03-08T03:22:06.289Z,99033.22
2023-03-08T03:23:08.932Z,99028.72
2023-03-08T03:24:20.147Z,99030.38
2023-03-08T03:25:27.859Z,99033.88
2023-03-08T03:26:30.219Z,99030.38
2023-03-08T03:27:32.782Z,99022.59
2023-03-08T03:28:34.758Z,99031.56
2023-03-08T03:29:38.302Z,99027.25
2023-03-08T03:30:48.237Z,99029.56
2023-03-08T03:31:50.569Z,99031.56
2023-03-08T03:32:54.839Z,99031.56
2023-03-08T03:34:03.039Z,99030.56
2023-03-08T03:35:05.309Z,99031.56
2023-03-08T03:36:10.591Z,98992.66
2023-03-08T03:37:12.415Z,99035.22
2023-03-08T03:38:16.044Z,99028.22
2023-03-08T03:39:19.937Z,99035.22
2023-03-08T03:40:23.406Z,99023.25
2023-03-08T03:41:30.355Z,99017.94
2023-03-08T03:42:37.586Z,99031.56
2023-03-08T03:43:47.233Z,99032.38
2023-03-08T03:44:49.410Z,99030.91
2023-03-08T03:45:59.219Z,99023.75
2023-03-08T03:47:02.056Z,99029.91
2023-03-08T03:48:04.623Z,99023.91
2023-03-08T03:49:07.566Z,99024.72
2023-03-08T03:50:13.522Z,99028.22
2023-03-08T03:51:29.628Z,99029.56
2023-03-08T03:52:42.781Z,99027.91
2023-03-08T03:53:45.121Z,99011.25
2023-03-08T03:54:47.304Z,99028.22
2023-03-08T03:55:49.721Z,99026.56
2023-03-08T03:56:51.642Z,99034.69
2023-03-08T03:57:57.126Z,99008.28
2023-03-08T03:58:59.133Z,99027.72
2023-03-08T04:00:02.611Z,99030.56
2023-03-08T04:01:27.074Z,99021.88
2023-03-08T04:02:34.383Z,99028.06
2023-03-08T04:03:37.086Z,98999.47
2023-03-08T04:04:39.030Z,99034.69
2023-03-08T04:05:41.629Z,99032.88
2023-03-08T04:06:43.458Z,99033.88
2023-03-08T04:07:48.549Z,99027.91
2023-03-08T04:08:55.909Z,99020.88
2023-03-08T04:09:59.933Z,99029.38
2023-03-08T04:11:01.841Z,99032.22
2023-03-08T04:12:05.792Z,99019.09
2023-03-08T04:13:12.031Z,99025.25
2023-03-08T04:14:15.155Z,99023.88
2023-03-08T04:15:18.707Z,99032.22
2023-03-08T04:16:24.535Z,99034.03
2023-03-08T04:17:26.830Z,99029.56
2023-03-08T04:18:29.784Z,99032.22
2023-03-08T04:19:31.988Z,99033.22
2023-03-08T04:20:35.569Z,99029.56
2023-03-08T04:21:39.749Z,99032.22
2023-03-08T04:22:41.585Z,99030.84
2023-03-08T04:23:52.058Z,99023.88
2023-03-08T04:24:54.071Z,99031.22
2023-03-08T04:26:03.619Z,99037.53
2023-03-08T04:27:05.489Z,99033.03
2023-03-08T04:28:07.625Z,99034.03
2023-03-08T04:29:09.604Z,99035.88
2023-03-08T04:30:13.740Z,99032.50
2023-03-08T04:31:22.552Z,99034.19
2023-03-08T04:32:24.559Z,99029.56
2023-03-08T04:33:31.169Z,99033.88
2023-03-08T04:34:33.536Z,99033.03
2023-03-08T04:35:35.952Z,99033.22
2023-03-08T04:36:38.681Z,99035.88
2023-03-08T04:37:40.568Z,99035.88
2023-03-08T04:38:47.837Z,99033.03
2023-03-08T04:39:49.647Z,99033.22
2023-03-08T04:41:11.420Z,99030.56
2023-03-08T04:42:21.296Z,99035.22
2023-03-08T04:43:23.693Z,99027.56
2023-03-08T04:44:25.842Z,99026.91
2023-03-08T04:45:28.150Z,99027.91
2023-03-08T04:46:33.278Z,99027.91
2023-03-08T04:47:35.677Z,99027.19
2023-03-08T04:48:37.884Z,99036.84
2023-03-08T04:49:40.165Z,99032.50
2023-03-08T04:50:42.633Z,99037.81
2023-03-08T04:51:45.148Z,99033.50
2023-03-08T04:52:47.424Z,99033.16
2023-03-08T04:53:49.733Z,99034.34
2023-03-08T04:54:52.323Z,99037.81
2023-03-08T04:56:00.943Z,99039.50
2023-03-08T04:57:03.221Z,99042.31
2023-03-08T04:58:07.229Z,99030.84
2023-03-08T04:59:09.426Z,99044.13
2023-03-08T05:00:12.564Z,99025.53
2023-03-08T05:01:18.949Z,99030.19
2023-03-08T05:02:23.434Z,99044.13
2023-03-08T05:03:26.004Z,99041.47
2023-03-08T05:04:27.909Z,99044.31
2023-03-08T05:05:29.735Z,99048.63
2023-03-08T05:06:32.636Z,99047.66
2023-03-08T05:07:34.534Z,99053.09
2023-03-08T05:08:37.532Z,99052.75
2023-03-08T05:09:42.802Z,99047.13
2023-03-08T05:10:59.607Z,99054.75
2023-03-08T05:12:05.088Z,99029.53
2023-03-08T05:13:30.475Z,99044.31
2023-03-08T05:14:32.342Z,99036.69
2023-03-08T05:15:35.260Z,99050.97
2023-03-08T05:16:38.062Z,99048.47
2023-03-08T05:17:39.901Z,99044.00
2023-03-08T05:18:42.103Z,99027.69
2023-03-08T05:19:44.042Z,99054.94
2023-03-08T05:21:06.639Z,99051.28
2023-03-08T05:22:09.748Z,99044.66
2023-03-08T05:23:17.745Z,99040.16
2023-03-08T05:24:19.928Z,99048.47
2023-03-08T05:25:22.521Z,99038.66
2023-03-08T05:26:24.740Z,99029.50
2023-03-08T05:27:27.180Z,99036.00
2023-03-08T05:28:32.987Z,99049.78
2023-03-08T05:29:37.194Z,99047.63
2023-03-08T05:30:40.272Z,99053.09
2023-03-08T05:31:44.940Z,99054.94
2023-03-08T05:32:48.302Z,99046.97
2023-03-08T05:33:51.681Z,99052.44
2023-03-08T05:35:00.140Z,99057.41
2023-03-08T05:36:10.927Z,99055.09
2023-03-08T05:37:13.472Z,99046.78
2023-03-08T05:38:17.732Z,99056.44
2023-03-08T05:39:20.384Z,99055.75
2023-03-08T05:40:34.988Z,99060.94
2023-03-08T05:41:36.824Z,99048.28
2023-03-08T05:42:39.330Z,99060.25
2023-03-08T05:43:42.300Z,99053.75
2023-03-08T05:44:45.880Z,99063.06
2023-03-08T05:45:59.261Z,99055.09
2023-03-08T05:47:02.594Z,99064.56
2023-03-08T05:48:04.726Z,99061.06
2023-03-08T05:49:08.529Z,99058.06
2023-03-08T05:50:12.207Z,99065.56
2023-03-08T05:51:18.932Z,99059.75
2023-03-08T05:52:21.321Z,99052.44
2023-03-08T05:53:24.358Z,99048.63
2023-03-08T05:54:26.770Z,99056.75
2023-03-08T05:55:32.252Z,99068.22
2023-03-08T05:56:34.485Z,99046.13
2023-03-08T05:57:44.990Z,99054.75
2023-03-08T05:58:48.407Z,99054.94
2023-03-08T05:59:51.563Z,99052.75
2023-03-08T06:00:56.486Z,99044.31
2023-03-08T06:01:58.757Z,99054.09
2023-03-08T06:03:11.782Z,99050.97
2023-03-08T06:04:16.459Z,99037.81
2023-03-08T06:05:22.536Z,99058.94
2023-03-08T06:06:28.480Z,99035.16
2023-03-08T06:07:34.371Z,99037.50
2023-03-08T06:08:42.677Z,99037.53
2023-03-08T06:09:44.466Z,99048.31
2023-03-08T06:10:49.859Z,99046.16
2023-03-08T06:11:51.682Z,99051.47
2023-03-08T06:12:53.868Z,99043.50
2023-03-08T06:13:59.456Z,99047.50
2023-03-08T06:15:05.403Z,99047.50
2023-03-08T06:16:11.325Z,99036.53
2023-03-08T06:17:13.316Z,99059.16
2023-03-08T06:18:18.936Z,99050.19
2023-03-08T06:19:21.027Z,99057.66
2023-03-08T06:20:25.637Z,99058.19
2023-03-08T06:21:27.511Z,99051.53
2023-03-08T06:22:35.612Z,99053.03
2023-03-08T06:23:38.104Z,99057.19
2023-03-08T06:24:40.064Z,99063.81
2023-03-08T06:25:44.234Z,99054.03
2023-03-08T06:26:46.914Z,99061.50
2023-03-08T06:27:50.585Z,99043.88
2023-03-08T06:29:01.245Z,99060.53
2023-03-08T06:30:05.994Z,99049.72
2023-03-08T06:31:12.652Z,99049.56
2023-03-08T06:32:14.991Z,99053.38
2023-03-08T06:33:18.766Z,99050.56
2023-03-08T06:34:21.712Z,99046.56
2023-03-08T06:35:26.043Z,99045.72
2023-03-08T06:36:32.553Z,99051.53
2023-03-08T06:37:35.533Z,99051.88
2023-03-08T06:38:40.172Z,99034.25
2023-03-08T06:39:42.129Z,99056.50
2023-03-08T06:40:43.987Z,99042.88
2023-03-08T06:41:45.887Z,99046.06
2023-03-08T06:42:48.972Z,99059.34
2023-03-08T06:43:51.277Z,99060.84
2023-03-08T06:44:53.066Z,99054.53
2023-03-08T06:45:55.335Z,99064.84
2023-03-08T06:46:57.646Z,99050.22
2023-03-08T06:48:00.553Z,99050.22
2023-03-08T06:49:04.312Z,99062.50
2023-03-08T06:50:08.550Z,99045.38
2023-03-08T06:51:12.690Z,99051.19
2023-03-08T06:52:18.698Z,99065.13
2023-03-08T06:53:22.384Z,99054.19
2023-03-08T06:54:30.829Z,99054.84
2023-03-08T06:55:34.763Z,99068.47
2023-03-08T06:56:36.630Z,99066.47
2023-03-08T06:57:38.767Z,99068.97
2023-03-08T06:58:40.932Z,99063.63
2023-03-08T06:59:42.691Z,99069.78
2023-03-08T07:00:44.455Z,99069.63
2023-03-08T07:01:46.352Z,99066.97
2023-03-08T07:02:49.749Z,99064.78
2023-03-08T07:03:52.947Z,99076.44
2023-03-08T07:04:54.764Z,99065.31
2023-03-08T07:06:05.928Z,99077.94
2023-03-08T07:07:08.103Z,99072.41
2023-03-08T07:08:09.922Z,99066.63
2023-03-08T07:09:13.274Z,99070.75
2023-03-08T07:10:16.219Z,99069.75
2023-03-08T07:11:18.029Z,99059.78
2023-03-08T07:12:19.975Z,99069.75
2023-03-08T07:13:23.747Z,99078.41
2023-03-08T07:14:25.583Z,99061.63
2023-03-08T07:15:27.636Z,99082.72
2023-03-08T07:16:29.538Z,99072.06
2023-03-08T07:17:33.013Z,99079.06
2023-03-08T07:18:35.128Z,99079.72
2023-03-08T07:19:36.977Z,99076.25
2023-03-08T07:20:38.769Z,99085.88
2023-03-08T07:21:44.361Z,99084.06
2023-03-08T07:22:47.004Z,99076.41
2023-03-08T07:23:51.668Z,99080.41
2023-03-08T07:24:53.584Z,99075.41
2023-03-08T07:25:55.484Z,99075.75
2023-03-08T07:26:57.868Z,99084.72
2023-03-08T07:28:00.306Z,99077.25
2023-03-08T07:29:02.145Z,99072.06
2023-03-08T07:30:04.450Z,99077.59
2023-03-08T07:31:06.335Z,99085.75
2023-03-08T07:32:08.374Z,99079.41
2023-03-08T07:33:11.956Z,99090.75
2023-03-08T07:34:13.844Z,99081.75
2023-03-08T07:35:16.372Z,99074.06
2023-03-08T07:36:18.205Z,99082.56
2023-03-08T07:37:20.089Z,99081.56
2023-03-08T07:38:21.920Z,99075.09
2023-03-08T07:39:23.752Z,99084.25
2023-03-08T07:40:25.632Z,99073.59
2023-03-08T07:41:30.605Z,99085.09
2023-03-08T07:42:32.559Z,99085.09
2023-03-08T07:43:46.989Z,99085.56
2023-03-08T07:44:52.410Z,99081.22
2023-03-08T07:45:54.306Z,99087.41
2023-03-08T07:46:56.232Z,99094.53
2023-03-08T07:47:58.769Z,99080.41
2023-03-08T07:49:00.770Z,99081.41
2023-03-08T07:50:02.676Z,99083.09
2023-03-08T07:51:07.661Z,99077.59
2023-03-08T07:52:09.519Z,99087.41
2023-03-08T07:53:11.320Z,99084.75
2023-03-08T07:54:13.111Z,99087.41
2023-03-08T07:55:15.198Z,99078.09
2023-03-08T07:56:17.035Z,99088.22
2023-03-08T07:57:18.804Z,99089.06
2023-03-08T07:58:22.080Z,99088.22
2023-03-08T07:59:24.496Z,99093.38
2023-03-08T08:00:26.709Z,99097.06
2023-03-08T08:01:28.500Z,99088.88
2023-03-08T08:02:30.471Z,99096.22
2023-03-08T08:03:32.625Z,99088.88
2023-03-08T08:04:35.928Z,99092.38
2023-03-08T08:05:37.958Z,99089.72
2023-03-08T08:06:40.672Z,99092.53
2023-03-08T08:07:42.468Z,99089.72
2023-03-08T08:08:44.284Z,99087.72
2023-03-08T08:09:46.141Z,99084.91
2023-03-08T08:10:47.900Z,99092.19
2023-03-08T08:11:49.681Z,99086.41
2023-03-08T08:12:51.638Z,99080.41
2023-03-08T08:13:53.832Z,99084.91
2023-03-08T08:14:55.633Z,99094.69
2023-03-08T08:16:02.297Z,99098.19
2023-03-08T08:17:04.456Z,99093.50
2023-03-08T08:18:06.598Z,99088.06
2023-03-08T08:19:11.053Z,99093.50
2023-03-08T08:20:12.877Z,99099.69
2023-03-08T08:21:16.375Z,99094.34
2023-03-08T08:22:18.168Z,99096.03
2023-03-08T08:23:19.943Z,99097.19
2023-03-08T08:24:21.757Z,99093.34
2023-03-08T08:25:23.658Z,99095.00
2023-03-08T08:26:25.532Z,99086.06
2023-03-08T08:27:27.364Z,99097.69
2023-03-08T08:28:29.435Z,99081.06
2023-03-08T08:29:31.209Z,99099.34
2023-03-08T08:30:33.007Z,99098.50
2023-03-08T08:31:34.952Z,99103.66
2023-03-08T08:32:36.893Z,99079.88
2023-03-08T08:33:39.006Z,99102.66
2023-03-08T08:34:40.838Z,99091.84
2023-03-08T08:35:43.684Z,99102.81
2023-03-08T08:36:45.980Z,99104.31
2023-03-08T08:37:47.769Z,99105.16
2023-03-08T08:38:50.571Z,99089.03
2023-03-08T08:39:52.365Z,99106.00
2023-03-08T08:40:54.192Z,99099.00
2023-03-08T08:41:56.003Z,99106.00
2023-03-08T08:42:57.832Z,99102.66
2023-03-08T08:44:00.369Z,99106.84
2023-03-08T08:45:02.231Z,99113.63
2023-03-08T08:46:05.273Z,99109.31
2023-03-08T08:47:07.127Z,99112.63
2023-03-08T08:48:08.966Z,99097.34
2023-03-08T08:49:11.041Z,99113.47
2023-03-08T08:50:14.124Z,99098.19
2023-03-08T08:51:16.298Z,99110.63
2023-03-08T08:52:19.731Z,99110.63
2023-03-08T08:53:22.226Z,99104.47
2023-03-08T08:54:24.138Z,99113.94
2023-03-08T08:55:26.460Z,99102.31
2023-03-08T08:56:29.373Z,99115.59
2023-03-08T08:57:35.261Z,99118.94
2023-03-08T08:58:37.030Z,99113.78
2023-03-08T08:59:39.317Z,99117.25
2023-03-08T09:00:41.553Z,99113.94
2023-03-08T09:01:47.112Z,99121.59
2023-03-08T09:02:49.496Z,99128.44
2023-03-08T09:03:51.915Z,99117.94
2023-03-08T09:04:53.953Z,99121.09
2023-03-08T09:05:58.565Z,99119.44
2023-03-08T09:07:00.388Z,99116.56
2023-03-08T09:08:02.282Z,99115.25
2023-03-08T09:09:05.762Z,99103.63
2023-03-08T09:10:08.519Z,99112.44
2023-03-08T09:11:11.014Z,99077.38
2023-03-08T09:12:13.118Z,99125.22
2023-03-08T09:13:15.135Z,99112.91
2023-03-08T09:14:16.966Z,99107.28
2023-03-08T09:15:18.923Z,99116.22
2023-03-08T09:16:22.271Z,99121.56
2023-03-08T09:17:24.085Z,99117.06
2023-03-08T09:18:26.657Z,99115.09
2023-03-08T09:19:28.884Z,99110.59
2023-03-08T09:20:30.707Z,99108.28
2023-03-08T09:21:33.380Z,99116.91
2023-03-08T09:22:36.642Z,99125.06
2023-03-08T09:23:38.517Z,99129.25
2023-03-08T09:24:40.379Z,99127.56
2023-03-08T09:25:42.157Z,99128.22
2023-03-08T09:26:44.061Z,99131.91
2023-03-08T09:27:45.830Z,99129.25
2023-03-08T09:28:47.809Z,99129.91
2023-03-08T09:29:49.694Z,99126.56
2023-03-08T09:30:54.276Z,99128.56
2023-03-08T09:31:57.766Z,99126.22
2023-03-08T09:33:02.248Z,99118.22
2023-03-08T09:34:09.048Z,99138.53
2023-03-08T09:35:11.157Z,99131.56
2023-03-08T09:36:13.167Z,99128.69
2023-03-08T09:37:15.022Z,99114.56
2023-03-08T09:38:16.845Z,99133.22
2023-03-08T09:39:18.695Z,99123.72
2023-03-08T09:40:23.651Z,99128.69
2023-03-08T09:41:28.385Z,99129.53
2023-03-08T09:42:34.107Z,99133.88
2023-03-08T09:44:17.477Z,99135.00
2023-03-08T09:45:28.811Z,99137.16
2023-03-08T09:46:36.264Z,99136.50
2023-03-08T09:48:01.281Z,99134.19
2023-03-08T09:49:05.312Z,99124.84
2023-03-08T09:50:35.237Z,99127.84
2023-03-08T09:51:41.107Z,99131.81
2023-03-08T09:52:52.297Z,99136.66
2023-03-08T09:54:00.929Z,99129.66
2023-03-08T09:55:04.500Z,99123.22
2023-03-08T09:56:21.179Z,99134.19
2023-03-08T09:57:26.961Z,99136.53
2023-03-08T09:58:28.836Z,99135.00
2023-03-08T09:59:33.719Z,99139.50
2023-03-08T10:00:37.579Z,99138.00
2023-03-08T10:01:51.893Z,99140.69
2023-03-08T10:03:27.244Z,99119.25
2023-03-08T10:05:11.876Z,99138.97
2023-03-08T10:06:48.802Z,99135.75
2023-03-08T10:08:30.622Z,99134.94
2023-03-08T10:09:42.003Z,99133.44
2023-03-08T10:11:01.474Z,99133.19
2023-03-08T10:12:13.494Z,99146.47
2023-03-08T10:13:32.607Z,99137.66
2023-03-08T10:14:42.726Z,99137.66
2023-03-08T10:15:50.825Z,99148.47
2023-03-08T10:16:57.519Z,99146.81
2023-03-08T10:18:13.636Z,99135.00
2023-03-08T10:19:30.910Z,99143.97
2023-03-08T10:20:37.225Z,99134.00
2023-03-08T10:21:42.168Z,99140.47
2023-03-08T10:22:46.035Z,99151.94
2023-03-08T10:23:57.403Z,99143.16
2023-03-08T10:25:16.062Z,99150.13
2023-03-08T10:26:18.838Z,99156.97
2023-03-08T10:27:24.701Z,99148.31
2023-03-08T10:28:27.920Z,99152.97
2023-03-08T10:29:29.764Z,99157.28
2023-03-08T10:30:51.401Z,99152.81
2023-03-08T10:31:53.319Z,99156.13
2023-03-08T10:32:59.666Z,99156.47
2023-03-08T10:34:13.106Z,99149.97
2023-03-08T10:35:16.173Z,99164.31
2023-03-08T10:36:24.320Z,99160.13
2023-03-08T10:37:31.740Z,99161.81
2023-03-08T10:38:36.644Z,99161.81
2023-03-08T10:39:52.704Z,99161.66
2023-03-08T10:41:13.042Z,99155.13
2023-03-08T10:42:16.718Z,99149.47
2023-03-08T10:43:27.216Z,99147.81
2023-03-08T10:44:33.799Z,99166.78
2023-03-08T10:45:35.632Z,99160.63
2023-03-08T10:46:47.309Z,99162.47
2023-03-08T10:47:56.908Z,99160.63
2023-03-08T10:49:19.285Z,99157.78
2023-03-08T10:50:24.761Z,99167.44
2023-03-08T10:51:28.611Z,99163.13
2023-03-08T10:52:30.531Z,99157.13
2023-03-08T10:53:33.488Z,99162.81
2023-03-08T10:54:35.366Z,99160.13
2023-03-08T10:55:43.550Z,99144.53
2023-03-08T10:56:52.353Z,99164.63
2023-03-08T10:57:57.284Z,99166.47
2023-03-08T10:58:59.619Z,99152.19
2023-03-08T11:00:22.263Z,99166.50
2023-03-08T11:01:25.975Z,99138.88
2023-03-08T11:02:27.925Z,99145.19
2023-03-08T11:03:29.818Z,99160.13
2023-03-08T11:04:31.832Z,99171.81
2023-03-08T11:05:33.645Z,99164.97
2023-03-08T11:06:35.598Z,99178.28
2023-03-08T11:07:37.603Z,99172.16
2023-03-08T11:08:51.294Z,99165.97
2023-03-08T11:10:13.521Z,99165.28
2023-03-08T11:11:15.364Z,99170.44
2023-03-08T11:12:26.195Z,99161.81
2023-03-08T11:13:32.686Z,99173.28
2023-03-08T11:14:34.573Z,99167.13
2023-03-08T11:15:40.270Z,99177.13
2023-03-08T11:17:05.759Z,99176.78
2023-03-08T11:18:21.712Z,99169.44
2023-03-08T11:19:45.479Z,99183.78
2023-03-08T11:20:54.861Z,99186.09
2023-03-08T11:22:20.903Z,99173.63
2023-03-08T11:23:33.197Z,99166.47
2023-03-08T11:24:50.146Z,99183.13
2023-03-08T11:26:05.600Z,99188.28
2023-03-08T11:27:18.401Z,99179.47
2023-03-08T11:28:46.164Z,99177.13
2023-03-08T11:29:50.788Z,99180.47
2023-03-08T11:30:52.672Z,99182.47
2023-03-08T11:32:02.340Z,99175.97
2023-03-08T11:33:35.243Z,99180.63
2023-03-08T11:35:06.029Z,99178.44
2023-03-08T11:36:28.832Z,99184.44
2023-03-08T11:37:40.053Z,99184.78
2023-03-08T11:38:43.066Z,99185.94
2023-03-08T11:39:59.652Z,99186.78
2023-03-08T11:41:26.095Z,99178.13
2023-03-08T11:42:58.036Z,99188.09
2023-03-08T11:44:40.573Z,99184.44
2023-03-08T11:45:45.048Z,99180.78
2023-03-08T11:46:58.722Z,99188.63
2023-03-08T11:48:07.695Z,99188.81
2023-03-08T11:49:31.121Z,99190.16
2023-03-08T11:50:40.242Z,99187.13
2023-03-08T11:52:08.155Z,99191.28
2023-03-08T11:53:16.978Z,99199.28
2023-03-08T11:54:31.678Z,99199.63
2023-03-08T11:55:46.086Z,99195.13
2023-03-08T11:56:57.169Z,99199.47
2023-03-08T11:58:13.629Z,99196.13
2023-03-08T11:59:25.214Z,99196.94
2023-03-08T12:00:35.952Z,99192.97
2023-03-08T12:01:45.781Z,99190.84
2023-03-08T12:02:48.844Z,99208.81
2023-03-08T12:03:54.681Z,99209.81
2023-03-08T12:05:10.058Z,99206.47
2023-03-08T12:06:28.647Z,99207.97
2023-03-08T12:07:43.455Z,99209.63
2023-03-08T12:08:51.208Z,99202.63
2023-03-08T12:10:03.479Z,99216.47
2023-03-08T12:11:19.368Z,99219.63
2023-03-08T12:12:30.602Z,99210.81
2023-03-08T12:13:38.835Z,99222.47
2023-03-08T12:14:57.216Z,99216.28
2023-03-08T12:16:29.273Z,99222.78
2023-03-08T12:17:45.656Z,99214.47
2023-03-08T12:19:18.398Z,99223.59
2023-03-08T12:20:22.335Z,99220.94
2023-03-08T12:21:55.986Z,99212.13
2023-03-08T12:23:12.029Z,99199.50
2023-03-08T12:24:41.284Z,99219.28
2023-03-08T12:25:46.515Z,99226.25
2023-03-08T12:27:08.496Z,99229.94
2023-03-08T12:28:20.834Z,99225.59
2023-03-08T12:29:42.515Z,99233.25
2023-03-08T12:31:29.179Z,99238.94
2023-03-08T12:32:33.083Z,99232.75
2023-03-08T12:33:35.552Z,99237.94
2023-03-08T12:34:46.369Z,99229.94
2023-03-08T12:36:06.776Z,99227.97
2023-03-08T12:37:26.304Z,99241.09
2023-03-08T12:38:38.128Z,99232.25
2023-03-08T12:39:40.737Z,99238.28
2023-03-08T12:40:44.415Z,99253.09
2023-03-08T12:41:57.492Z,99237.13
2023-03-08T12:43:14.229Z,99246.59
2023-03-08T12:44:25.062Z,99242.09
2023-03-08T12:45:31.133Z,99238.59
2023-03-08T12:47:02.881Z,99240.09
2023-03-08T12:48:05.712Z,99243.44
2023-03-08T12:49:20.072Z,99245.44
2023-03-08T12:50:24.834Z,99239.59
2023-03-08T12:51:33.962Z,99250.25
2023-03-08T12:52:36.325Z,99241.13
2023-03-08T12:53:46.516Z,99252.09